createdAt,value
2022-10-30T00:00:32.220Z,20.60
2022-10-30T00:01:31.267Z,21.80
2022-10-30T00:02:31.299Z,22.90
2022-10-30T00:03:31.199Z,27.80
2022-10-30T00:04:31.218Z,24.30
2022-10-30T00:05:31.189Z,24.10
2022-10-30T00:06:31.158Z,30.30
2022-10-30T00:07:32.167Z,22.70
2022-10-30T00:08:31.151Z,25.10
2022-10-30T00:09:31.168Z,24.50
2022-10-30T00:10:31.136Z,22.50
2022-10-30T00:11:31.129Z,20.80
2022-10-30T00:12:31.117Z,18.60
2022-10-30T00:13:31.112Z,25.50
2022-10-30T00:14:31.140Z,25.80
2022-10-30T00:15:31.098Z,16.60
2022-10-30T00:16:31.090Z,23.00
2022-10-30T00:17:31.082Z,25.30
2022-10-30T00:18:31.077Z,20.80
2022-10-30T00:19:31.087Z,26.50
2022-10-30T00:20:31.060Z,22.30
2022-10-30T00:21:31.046Z,26.00
2022-10-30T00:22:31.040Z,22.40
2022-10-30T00:23:31.031Z,23.40
2022-10-30T00:24:31.052Z,20.80
2022-10-30T00:25:31.019Z,18.80
2022-10-30T00:26:31.009Z,21.90
2022-10-30T00:27:31.005Z,23.00
2022-10-30T00:28:30.999Z,24.10
2022-10-30T00:29:31.016Z,19.00
2022-10-30T00:30:30.978Z,19.40
2022-10-30T00:31:30.971Z,22.30
2022-10-30T00:32:30.963Z,24.40
2022-10-30T00:33:30.943Z,18.80
2022-10-30T00:34:31.970Z,20.90
2022-10-30T00:35:30.971Z,24.50
2022-10-30T00:36:30.931Z,24.30
2022-10-30T00:37:30.919Z,22.50
2022-10-30T00:38:30.915Z,29.20
2022-10-30T00:39:30.935Z,18.10
2022-10-30T00:40:30.899Z,24.00
2022-10-30T00:41:30.892Z,20.10
2022-10-30T00:42:30.886Z,22.40
2022-10-30T00:43:30.880Z,18.90
2022-10-30T00:44:30.903Z,19.90
2022-10-30T00:45:30.861Z,19.80
2022-10-30T00:46:30.853Z,25.80
2022-10-30T00:47:30.847Z,21.40
2022-10-30T00:48:30.837Z,20.40
2022-10-30T00:49:30.867Z,23.10
2022-10-30T00:50:30.832Z,34.70
2022-10-30T00:51:30.815Z,21.90
2022-10-30T00:52:30.809Z,25.90
2022-10-30T00:53:30.803Z,18.80
2022-10-30T00:54:30.794Z,26.50
2022-10-30T00:55:30.808Z,22.60
2022-10-30T00:56:30.775Z,19.50
2022-10-30T00:57:30.770Z,27.50
2022-10-30T00:58:30.765Z,19.80
2022-10-30T00:59:30.751Z,20.20
2022-10-30T01:00:30.774Z,17.50
2022-10-30T01:01:30.849Z,19.80
2022-10-30T01:02:30.848Z,24.90
2022-10-30T01:03:30.727Z,26.30
2022-10-30T01:04:30.739Z,26.60
2022-10-30T01:05:30.712Z,20.50
2022-10-30T01:06:30.703Z,24.40
2022-10-30T01:07:30.690Z,24.40
2022-10-30T01:08:30.731Z,18.90
2022-10-30T01:09:30.699Z,18.10
2022-10-30T01:10:30.673Z,17.40
2022-10-30T01:11:30.656Z,23.00
2022-10-30T01:12:30.652Z,20.20
2022-10-30T01:13:30.646Z,20.40
2022-10-30T01:14:30.658Z,25.20
2022-10-30T01:15:30.631Z,21.20
2022-10-30T01:16:31.624Z,19.30
2022-10-30T01:17:30.615Z,20.00
2022-10-30T01:18:30.610Z,19.50
2022-10-30T01:19:30.622Z,21.90
2022-10-30T01:20:30.591Z,20.50
2022-10-30T01:21:30.587Z,19.60
2022-10-30T01:22:30.578Z,22.30
2022-10-30T01:23:30.573Z,23.00
2022-10-30T01:24:30.593Z,23.10
2022-10-30T01:25:30.551Z,14.70
2022-10-30T01:26:30.548Z,16.80
2022-10-30T01:27:30.537Z,20.70
2022-10-30T01:28:30.528Z,23.60
2022-10-30T01:29:30.521Z,21.50
2022-10-30T01:30:30.538Z,23.70
2022-10-30T01:31:30.509Z,22.60
2022-10-30T01:32:30.497Z,20.20
2022-10-30T01:33:30.492Z,23.40
2022-10-30T01:34:30.543Z,21.60
2022-10-30T01:35:30.478Z,24.10
2022-10-30T01:36:30.470Z,33.60
2022-10-30T01:37:30.461Z,18.90
2022-10-30T01:38:30.450Z,21.40
2022-10-30T01:39:31.479Z,20.20
2022-10-30T01:40:30.444Z,27.00
2022-10-30T01:41:30.434Z,25.90
2022-10-30T01:42:30.428Z,22.40
2022-10-30T01:43:30.423Z,22.70
2022-10-30T01:44:30.444Z,17.00
2022-10-30T01:45:30.410Z,20.20
2022-10-30T01:46:30.394Z,19.50
2022-10-30T01:47:31.391Z,24.90
2022-10-30T01:48:30.381Z,25.40
2022-10-30T01:49:30.416Z,20.50
2022-10-30T01:50:30.366Z,25.70
2022-10-30T01:51:30.361Z,21.50
2022-10-30T01:52:30.360Z,31.40
2022-10-30T01:53:30.347Z,19.60
2022-10-30T01:54:30.344Z,22.90
2022-10-30T01:55:30.354Z,19.80
2022-10-30T01:56:30.323Z,25.20
2022-10-30T01:57:30.313Z,20.60
2022-10-30T01:58:30.310Z,19.90
2022-10-30T01:59:30.306Z,20.40
2022-10-30T02:00:30.321Z,23.10
2022-10-30T02:01:30.416Z,24.00
2022-10-30T02:02:30.364Z,21.10
2022-10-30T02:03:30.278Z,21.00
2022-10-30T02:04:30.265Z,21.70
2022-10-30T02:05:30.281Z,26.50
2022-10-30T02:06:30.246Z,25.00
2022-10-30T02:07:30.242Z,23.00
2022-10-30T02:08:30.234Z,26.10
2022-10-30T02:09:30.230Z,24.10
2022-10-30T02:10:30.239Z,21.40
2022-10-30T02:11:30.207Z,24.80
2022-10-30T02:12:30.202Z,18.20
2022-10-30T02:13:30.190Z,23.30
2022-10-30T02:14:30.185Z,20.30
2022-10-30T02:15:30.200Z,21.20
2022-10-30T02:16:30.173Z,26.10
2022-10-30T02:17:30.163Z,21.90
2022-10-30T02:18:30.385Z,20.00
2022-10-30T02:19:30.151Z,24.40
2022-10-30T02:20:30.162Z,19.10
2022-10-30T02:21:30.129Z,22.00
2022-10-30T02:22:30.138Z,21.10
2022-10-30T02:23:30.115Z,16.40
2022-10-30T02:24:30.109Z,18.60
2022-10-30T02:25:30.134Z,22.90
2022-10-30T02:26:30.092Z,22.10
2022-10-30T02:27:30.081Z,19.60
2022-10-30T02:28:30.078Z,19.50
2022-10-30T02:29:30.067Z,25.60
2022-10-30T02:30:30.087Z,17.70
2022-10-30T02:31:30.048Z,23.20
2022-10-30T02:32:31.045Z,21.30
2022-10-30T02:33:30.037Z,21.30
2022-10-30T02:34:30.031Z,22.70
2022-10-30T02:35:30.039Z,23.60
2022-10-30T02:36:30.011Z,20.10
2022-10-30T02:37:30.007Z,20.10
2022-10-30T02:38:29.984Z,17.80
2022-10-30T02:39:30.992Z,18.70
2022-10-30T02:40:30.006Z,21.20
2022-10-30T02:41:29.976Z,22.80
2022-10-30T02:42:29.966Z,21.80
2022-10-30T02:43:29.958Z,23.10
2022-10-30T02:44:29.949Z,23.50
2022-10-30T02:45:29.966Z,19.20
2022-10-30T02:46:29.932Z,21.90
2022-10-30T02:47:29.925Z,25.40
2022-10-30T02:48:29.916Z,26.30
2022-10-30T02:49:29.907Z,23.90
2022-10-30T02:50:29.926Z,21.80
2022-10-30T02:51:29.892Z,28.40
2022-10-30T02:52:29.881Z,25.40
2022-10-30T02:53:29.880Z,34.90
2022-10-30T02:54:29.867Z,26.60
2022-10-30T02:55:29.887Z,31.80
2022-10-30T02:56:29.854Z,24.60
2022-10-30T02:57:29.841Z,27.70
2022-10-30T02:58:29.824Z,27.10
2022-10-30T02:59:30.829Z,24.10
2022-10-30T03:00:29.848Z,29.40
2022-10-30T03:01:30.004Z,26.10
2022-10-30T03:02:29.805Z,27.30
2022-10-30T03:03:29.796Z,25.30
2022-10-30T03:04:29.790Z,24.90
2022-10-30T03:05:29.810Z,22.60
2022-10-30T03:06:29.778Z,25.40
2022-10-30T03:07:29.774Z,21.40
2022-10-30T03:08:29.758Z,27.00
2022-10-30T03:09:29.755Z,26.00
2022-10-30T03:10:29.773Z,25.20
2022-10-30T03:11:29.735Z,23.00
2022-10-30T03:12:29.730Z,22.40
2022-10-30T03:13:29.723Z,28.20
2022-10-30T03:14:29.719Z,25.60
2022-10-30T03:15:29.740Z,23.00
2022-10-30T03:16:29.705Z,21.40
2022-10-30T03:17:29.839Z,23.90
2022-10-30T03:18:29.685Z,27.10
2022-10-30T03:19:29.677Z,23.80
2022-10-30T03:20:29.698Z,29.10
2022-10-30T03:21:29.656Z,28.90
2022-10-30T03:22:29.653Z,33.00
2022-10-30T03:23:29.642Z,36.20
2022-10-30T03:24:29.633Z,32.20
2022-10-30T03:25:29.657Z,34.20
2022-10-30T03:26:29.613Z,34.00
2022-10-30T03:27:29.611Z,34.60
2022-10-30T03:28:29.604Z,24.30
2022-10-30T03:29:29.592Z,27.00
2022-10-30T03:30:29.613Z,27.90
2022-10-30T03:31:29.583Z,31.80
2022-10-30T03:32:29.575Z,20.60
2022-10-30T03:33:29.564Z,24.90
2022-10-30T03:34:29.557Z,24.30
2022-10-30T03:35:29.579Z,20.60
2022-10-30T03:36:29.537Z,30.30
2022-10-30T03:37:29.534Z,24.40
2022-10-30T03:38:29.531Z,25.60
2022-10-30T03:39:29.525Z,21.30
2022-10-30T03:40:29.517Z,23.10
2022-10-30T03:41:29.530Z,27.00
2022-10-30T03:42:29.500Z,27.60
2022-10-30T03:43:29.496Z,25.80
2022-10-30T03:44:29.481Z,28.90
2022-10-30T03:45:29.478Z,21.30
2022-10-30T03:46:29.491Z,31.20
2022-10-30T03:47:30.458Z,24.10
2022-10-30T03:48:29.458Z,24.90
2022-10-30T03:49:29.448Z,29.10
2022-10-30T03:50:29.432Z,26.10
2022-10-30T03:51:29.454Z,29.30
2022-10-30T03:52:29.423Z,32.10
2022-10-30T03:53:29.416Z,28.40
2022-10-30T03:54:29.412Z,34.90
2022-10-30T03:55:29.400Z,36.00
2022-10-30T03:56:29.417Z,34.40
2022-10-30T03:57:29.384Z,34.50
2022-10-30T03:58:29.378Z,33.10
2022-10-30T03:59:29.369Z,34.60
2022-10-30T04:00:29.349Z,38.70
2022-10-30T04:01:30.502Z,30.60
2022-10-30T04:02:29.352Z,28.60
2022-10-30T04:03:29.345Z,31.30
2022-10-30T04:04:29.326Z,32.50
2022-10-30T04:05:30.321Z,30.20
2022-10-30T04:06:29.340Z,32.60
2022-10-30T04:07:29.302Z,35.70
2022-10-30T04:08:29.298Z,33.90
2022-10-30T04:09:29.290Z,32.90
2022-10-30T04:10:29.284Z,43.50
2022-10-30T04:11:29.343Z,36.60
2022-10-30T04:12:29.260Z,40.00
2022-10-30T04:13:29.260Z,35.90
2022-10-30T04:14:29.250Z,30.20
2022-10-30T04:15:29.242Z,29.40
2022-10-30T04:16:29.259Z,22.10
2022-10-30T04:17:29.221Z,22.10
2022-10-30T04:18:29.217Z,24.10
2022-10-30T04:19:29.210Z,22.30
2022-10-30T04:20:29.193Z,22.10
2022-10-30T04:21:29.216Z,28.80
2022-10-30T04:22:29.178Z,26.90
2022-10-30T04:23:29.169Z,32.90
2022-10-30T04:24:29.169Z,22.10
2022-10-30T04:25:29.166Z,21.60
2022-10-30T04:26:29.178Z,26.50
2022-10-30T04:27:29.129Z,24.60
2022-10-30T04:28:30.132Z,23.10
2022-10-30T04:29:29.122Z,25.80
2022-10-30T04:30:29.114Z,21.40
2022-10-30T04:31:29.104Z,25.00
2022-10-30T04:32:29.127Z,23.30
2022-10-30T04:33:29.090Z,27.70
2022-10-30T04:34:29.082Z,26.40
2022-10-30T04:35:29.077Z,27.10
2022-10-30T04:36:29.064Z,26.40
2022-10-30T04:37:29.082Z,36.80
2022-10-30T04:38:29.052Z,43.60
2022-10-30T04:39:29.042Z,31.00
2022-10-30T04:40:29.037Z,35.50
2022-10-30T04:41:29.024Z,29.80
2022-10-30T04:42:29.044Z,40.00
2022-10-30T04:43:29.008Z,33.40
2022-10-30T04:44:29.004Z,45.70
2022-10-30T04:45:28.993Z,30.90
2022-10-30T04:46:28.983Z,27.30
2022-10-30T04:47:29.029Z,26.20
2022-10-30T04:48:28.970Z,28.70
2022-10-30T04:49:28.965Z,24.00
2022-10-30T04:50:28.952Z,26.40
2022-10-30T04:51:28.941Z,32.10
2022-10-30T04:52:28.963Z,29.70
2022-10-30T04:53:28.923Z,31.70
2022-10-30T04:54:28.921Z,27.30
2022-10-30T04:55:28.911Z,28.00
2022-10-30T04:56:28.906Z,28.60
2022-10-30T04:57:28.921Z,37.20
2022-10-30T04:58:28.890Z,55.30
2022-10-30T04:59:28.877Z,102.60
2022-10-30T05:00:28.874Z,50.20
2022-10-30T05:01:28.969Z,154.60
2022-10-30T05:02:29.205Z,168.40
2022-10-30T05:03:28.852Z,74.60
2022-10-30T05:04:28.844Z,127.20
2022-10-30T05:05:28.836Z,96.50
2022-10-30T05:06:28.825Z,126.40
2022-10-30T05:07:28.848Z,84.90
2022-10-30T05:08:28.808Z,121.60
2022-10-30T05:09:28.801Z,104.00
2022-10-30T05:10:28.794Z,115.70
2022-10-30T05:11:28.786Z,90.30
2022-10-30T05:12:28.805Z,96.50
2022-10-30T05:13:28.770Z,68.20
2022-10-30T05:14:28.762Z,70.40
2022-10-30T05:15:28.756Z,57.50
2022-10-30T05:16:28.746Z,52.00
2022-10-30T05:18:28.735Z,30.80
2022-10-30T05:19:28.722Z,33.00
2022-10-30T05:20:28.710Z,31.60
2022-10-30T05:21:28.701Z,46.60
2022-10-30T05:22:29.727Z,31.60
2022-10-30T05:23:28.692Z,33.50
2022-10-30T05:24:28.683Z,41.10
2022-10-30T05:25:28.678Z,36.90
2022-10-30T05:26:28.671Z,39.60
2022-10-30T05:27:28.689Z,46.00
2022-10-30T05:28:28.644Z,39.40
2022-10-30T05:29:29.647Z,53.80
2022-10-30T05:30:28.637Z,92.80
2022-10-30T05:31:28.653Z,154.60
2022-10-30T05:32:28.654Z,45.20
2022-10-30T05:33:28.622Z,24.30
2022-10-30T05:34:28.611Z,27.30
2022-10-30T05:35:28.601Z,33.00
2022-10-30T05:36:28.594Z,44.20
2022-10-30T05:37:28.613Z,57.50
2022-10-30T05:38:28.574Z,86.30
2022-10-30T05:39:28.588Z,61.60
2022-10-30T05:40:28.561Z,85.90
2022-10-30T05:41:28.555Z,74.90
2022-10-30T05:42:28.572Z,73.30
2022-10-30T05:43:28.536Z,121.80
2022-10-30T05:44:40.803Z,74.90
2022-10-30T05:45:30.523Z,68.00
2022-10-30T05:46:28.513Z,73.50
2022-10-30T05:47:28.560Z,99.50
2022-10-30T05:48:28.501Z,72.10
2022-10-30T05:49:28.494Z,54.60
2022-10-30T05:50:28.479Z,78.10
2022-10-30T05:51:28.477Z,51.70
2022-10-30T05:52:28.495Z,59.70
2022-10-30T05:53:28.458Z,40.70
2022-10-30T05:54:28.452Z,41.50
2022-10-30T05:55:28.447Z,34.40
2022-10-30T05:56:28.440Z,41.30
2022-10-30T05:57:28.454Z,42.10
2022-10-30T05:58:28.421Z,111.70
2022-10-30T05:59:28.410Z,310.20
2022-10-30T06:00:28.414Z,180.60
2022-10-30T06:01:28.486Z,48.40
2022-10-30T06:02:28.450Z,49.80
2022-10-30T06:03:28.382Z,78.30
2022-10-30T06:04:28.372Z,61.20
2022-10-30T06:05:28.370Z,65.20
2022-10-30T06:06:28.356Z,53.90
2022-10-30T06:07:28.383Z,51.50
2022-10-30T06:08:28.341Z,140.60
2022-10-30T06:09:28.316Z,142.30
2022-10-30T06:10:29.321Z,155.90
2022-10-30T06:11:28.313Z,134.50
2022-10-30T06:12:28.334Z,79.10
2022-10-30T06:13:28.302Z,52.00
2022-10-30T06:14:28.294Z,66.00
2022-10-30T06:15:28.282Z,118.00
2022-10-30T06:16:28.291Z,182.80
2022-10-30T06:17:28.304Z,149.20
2022-10-30T06:18:28.263Z,80.00
2022-10-30T06:19:28.255Z,39.50
2022-10-30T06:20:28.247Z,45.90
2022-10-30T06:21:28.237Z,35.10
2022-10-30T06:22:28.259Z,33.20
2022-10-30T06:23:28.228Z,28.70
2022-10-30T06:24:28.216Z,29.50
2022-10-30T06:25:28.208Z,28.60
2022-10-30T06:26:28.199Z,29.90
2022-10-30T06:27:28.217Z,24.30
2022-10-30T06:28:28.186Z,22.20
2022-10-30T06:29:28.180Z,29.00
2022-10-30T06:30:28.167Z,38.10
2022-10-30T06:31:28.162Z,60.40
2022-10-30T06:32:28.177Z,41.90
2022-10-30T06:33:28.144Z,32.80
2022-10-30T06:34:28.138Z,33.60
2022-10-30T06:35:28.131Z,34.70
2022-10-30T06:36:28.122Z,33.50
2022-10-30T06:37:28.137Z,36.80
2022-10-30T06:38:28.104Z,45.60
2022-10-30T06:39:28.092Z,39.60
2022-10-30T06:40:28.090Z,44.00
2022-10-30T06:41:30.574Z,34.20
2022-10-30T06:42:29.095Z,28.70
2022-10-30T06:43:28.066Z,34.90
2022-10-30T06:44:28.054Z,25.90
2022-10-30T06:45:28.044Z,25.10
2022-10-30T06:46:32.439Z,28.20
2022-10-30T06:47:29.054Z,32.70
2022-10-30T06:48:28.025Z,42.80
2022-10-30T06:49:28.010Z,34.10
2022-10-30T06:50:28.005Z,46.60
2022-10-30T06:51:27.994Z,39.60
2022-10-30T06:52:28.016Z,41.40
2022-10-30T06:53:27.984Z,38.40
2022-10-30T06:54:27.976Z,29.70
2022-10-30T06:55:27.969Z,27.50
2022-10-30T06:56:27.960Z,24.20
2022-10-30T06:57:27.982Z,21.40
2022-10-30T06:58:27.953Z,21.80
2022-10-30T06:59:27.948Z,22.40
2022-10-30T07:00:27.931Z,27.10
2022-10-30T07:01:28.050Z,27.70
2022-10-30T07:02:28.013Z,32.40
2022-10-30T07:03:27.907Z,30.60
2022-10-30T07:04:27.901Z,27.80
2022-10-30T07:05:27.898Z,48.20
2022-10-30T07:06:27.890Z,24.20
2022-10-30T07:07:27.908Z,27.70
2022-10-30T07:08:27.872Z,21.80
2022-10-30T07:09:27.861Z,17.80
2022-10-30T07:10:27.854Z,17.20
2022-10-30T07:11:27.846Z,19.10
2022-10-30T07:12:27.865Z,18.90
2022-10-30T07:13:27.832Z,22.40
2022-10-30T07:14:27.824Z,21.00
2022-10-30T07:15:27.868Z,20.50
2022-10-30T07:16:27.810Z,17.60
2022-10-30T07:17:27.830Z,16.10
2022-10-30T07:18:27.801Z,21.00
2022-10-30T07:19:27.782Z,15.90
2022-10-30T07:20:27.778Z,13.00
2022-10-30T07:21:27.769Z,15.40
2022-10-30T07:22:27.802Z,17.60
2022-10-30T07:23:27.763Z,15.60
2022-10-30T07:24:27.748Z,16.50
2022-10-30T07:25:27.741Z,14.00
2022-10-30T07:26:27.731Z,14.70
2022-10-30T07:27:27.724Z,16.20
2022-10-30T07:28:27.741Z,13.50
2022-10-30T07:29:27.708Z,14.70
2022-10-30T07:30:27.825Z,15.60
2022-10-30T07:31:41.526Z,14.70
2022-10-30T07:32:29.721Z,15.00
2022-10-30T07:33:27.675Z,13.00
2022-10-30T07:34:27.662Z,15.30
2022-10-30T07:35:27.658Z,14.80
2022-10-30T07:36:27.649Z,17.50
2022-10-30T07:37:27.643Z,22.00
2022-10-30T07:38:27.659Z,17.10
2022-10-30T07:39:27.627Z,16.80
2022-10-30T07:40:27.695Z,15.80
2022-10-30T07:41:27.608Z,19.10
2022-10-30T07:42:27.599Z,17.80
2022-10-30T07:43:27.620Z,14.40
2022-10-30T07:44:27.587Z,13.10
2022-10-30T07:45:27.583Z,17.70
2022-10-30T07:46:27.571Z,16.70
2022-10-30T07:47:27.562Z,16.90
2022-10-30T07:48:27.580Z,16.20
2022-10-30T07:49:27.547Z,12.70
2022-10-30T07:50:27.647Z,11.80
2022-10-30T07:51:27.534Z,10.80
2022-10-30T07:52:27.525Z,10.80
2022-10-30T07:53:27.543Z,10.90
2022-10-30T07:54:27.509Z,11.10
2022-10-30T07:55:27.513Z,8.30
2022-10-30T07:56:27.492Z,14.50
2022-10-30T07:57:27.488Z,11.60
2022-10-30T07:58:27.501Z,15.10
2022-10-30T07:59:27.473Z,9.60
2022-10-30T08:00:27.526Z,8.40
2022-10-30T08:01:27.544Z,12.90
2022-10-30T08:02:27.586Z,9.90
2022-10-30T08:03:27.461Z,9.80
2022-10-30T08:04:27.433Z,11.00
2022-10-30T08:05:30.097Z,12.50
2022-10-30T08:06:27.599Z,7.40
2022-10-30T08:07:27.417Z,11.90
2022-10-30T08:08:27.427Z,9.40
2022-10-30T08:09:27.398Z,10.30
2022-10-30T08:10:27.501Z,13.20
2022-10-30T08:11:27.379Z,11.80
2022-10-30T08:12:27.368Z,10.80
2022-10-30T08:13:27.388Z,6.90
2022-10-30T08:14:27.353Z,7.90
2022-10-30T08:15:27.345Z,9.10
2022-10-30T08:16:27.347Z,7.00
2022-10-30T08:17:27.332Z,11.10
2022-10-30T08:18:27.353Z,10.00
2022-10-30T08:19:27.319Z,9.50
2022-10-30T08:20:27.434Z,11.70
2022-10-30T08:21:27.313Z,8.30
2022-10-30T08:22:27.295Z,6.50
2022-10-30T08:23:27.315Z,9.30
2022-10-30T08:24:27.291Z,7.70
2022-10-30T08:25:27.272Z,9.70
2022-10-30T08:26:27.264Z,9.00
2022-10-30T08:27:27.256Z,8.50
2022-10-30T08:28:31.572Z,7.70
2022-10-30T08:29:28.236Z,8.70
2022-10-30T08:30:27.290Z,9.10
2022-10-30T08:31:27.228Z,10.40
2022-10-30T08:32:27.218Z,8.50
2022-10-30T08:33:27.238Z,11.00
2022-10-30T08:34:27.201Z,10.90
2022-10-30T08:35:27.251Z,7.90
2022-10-30T08:36:27.182Z,8.10
2022-10-30T08:37:27.187Z,11.00
2022-10-30T08:38:27.191Z,7.80
2022-10-30T08:39:27.160Z,8.60
2022-10-30T08:40:27.161Z,13.10
2022-10-30T08:41:27.146Z,8.50
2022-10-30T08:42:27.148Z,7.40
2022-10-30T08:43:27.155Z,10.00
2022-10-30T08:44:27.128Z,9.60
2022-10-30T08:45:30.914Z,9.80
2022-10-30T08:46:27.110Z,9.40
2022-10-30T08:47:27.104Z,9.10
2022-10-30T08:48:27.130Z,9.80
2022-10-30T08:49:27.086Z,15.00
2022-10-30T08:50:27.085Z,8.90
2022-10-30T08:51:27.073Z,8.70
2022-10-30T08:52:27.063Z,11.60
2022-10-30T08:53:27.082Z,11.50
2022-10-30T08:54:27.048Z,12.20
2022-10-30T08:55:27.043Z,11.10
2022-10-30T08:56:27.036Z,10.00
2022-10-30T08:57:27.025Z,12.90
2022-10-30T08:58:27.026Z,11.10
2022-10-30T08:59:28.036Z,12.00
2022-10-30T09:00:26.999Z,10.90
2022-10-30T09:01:27.208Z,12.40
2022-10-30T09:02:27.108Z,7.50
2022-10-30T09:03:26.978Z,9.90
2022-10-30T09:04:26.997Z,9.70
2022-10-30T09:05:26.966Z,10.40
2022-10-30T09:06:26.957Z,10.90
2022-10-30T09:07:26.952Z,8.50
2022-10-30T09:08:26.945Z,10.90
2022-10-30T09:09:26.956Z,12.70
2022-10-30T09:10:26.927Z,11.80
2022-10-30T09:11:26.919Z,9.90
2022-10-30T09:12:26.911Z,10.60
2022-10-30T09:13:26.931Z,10.50
2022-10-30T09:14:26.899Z,9.20
2022-10-30T09:15:26.892Z,10.20
2022-10-30T09:16:26.882Z,9.20
2022-10-30T09:17:26.874Z,7.40
2022-10-30T09:18:26.895Z,7.90
2022-10-30T09:19:26.861Z,8.80
2022-10-30T09:20:26.959Z,9.10
2022-10-30T09:21:26.847Z,13.70
2022-10-30T09:22:26.834Z,10.70
2022-10-30T09:23:26.848Z,9.00
2022-10-30T09:24:27.817Z,8.60
2022-10-30T09:25:26.816Z,11.10
2022-10-30T09:26:26.808Z,11.00
2022-10-30T09:27:26.798Z,11.80
2022-10-30T09:28:26.817Z,11.60
2022-10-30T09:29:26.792Z,10.30
2022-10-30T09:30:26.772Z,12.00
2022-10-30T09:31:26.767Z,8.10
2022-10-30T09:32:26.759Z,12.10
2022-10-30T09:33:26.782Z,13.50
2022-10-30T09:35:26.768Z,10.90
2022-10-30T09:36:27.749Z,9.40
2022-10-30T09:37:26.720Z,9.00
2022-10-30T09:38:26.718Z,9.40
2022-10-30T09:39:26.732Z,9.20
2022-10-30T09:40:26.692Z,10.30
2022-10-30T09:41:26.686Z,9.50
2022-10-30T09:42:26.682Z,10.00
2022-10-30T09:43:26.671Z,12.30
2022-10-30T09:44:26.693Z,12.60
2022-10-30T09:45:29.810Z,10.40
2022-10-30T09:46:27.654Z,9.70
2022-10-30T09:47:26.645Z,9.00
2022-10-30T09:48:26.638Z,9.30
2022-10-30T09:49:26.652Z,10.90
2022-10-30T09:50:26.619Z,9.00
2022-10-30T09:51:26.612Z,9.60
2022-10-30T09:52:26.608Z,11.40
2022-10-30T09:53:26.603Z,9.60
2022-10-30T09:54:26.624Z,9.50
2022-10-30T09:55:26.583Z,9.90
2022-10-30T09:56:26.572Z,7.70
2022-10-30T09:57:26.574Z,9.10
2022-10-30T09:58:26.565Z,9.20
2022-10-30T09:59:26.586Z,8.30
2022-10-30T10:00:26.558Z,10.40
2022-10-30T10:01:26.718Z,10.70
2022-10-30T10:02:26.646Z,10.70
2022-10-30T10:03:26.528Z,10.80
2022-10-30T10:04:27.205Z,13.60
2022-10-30T10:05:26.515Z,11.80
2022-10-30T10:06:26.508Z,10.60
2022-10-30T10:07:26.510Z,10.70
2022-10-30T10:08:26.491Z,9.50
2022-10-30T10:09:26.510Z,12.30
2022-10-30T10:10:26.471Z,11.30
2022-10-30T10:11:26.466Z,12.90
2022-10-30T10:12:26.459Z,9.10
2022-10-30T10:13:26.454Z,11.40
2022-10-30T10:14:26.472Z,13.30
2022-10-30T10:15:26.440Z,11.20
2022-10-30T10:16:26.434Z,15.00
2022-10-30T10:17:26.427Z,14.90
2022-10-30T10:18:26.492Z,11.50
2022-10-30T10:19:26.435Z,16.60
2022-10-30T10:20:26.409Z,14.90
2022-10-30T10:21:26.395Z,9.70
2022-10-30T10:22:26.393Z,9.70
2022-10-30T10:23:26.399Z,11.60
2022-10-30T10:24:26.408Z,13.70
2022-10-30T10:25:26.368Z,11.80
2022-10-30T10:26:26.368Z,10.70
2022-10-30T10:27:26.361Z,13.60
2022-10-30T10:28:26.367Z,14.20
2022-10-30T10:29:26.371Z,13.80
2022-10-30T10:30:26.406Z,12.40
2022-10-30T10:31:26.321Z,10.70
2022-10-30T10:32:26.315Z,15.00
2022-10-30T10:33:26.320Z,13.80
2022-10-30T10:34:26.308Z,12.00
2022-10-30T10:35:26.323Z,10.50
2022-10-30T10:36:26.287Z,13.00
2022-10-30T10:37:26.283Z,11.10
2022-10-30T10:38:26.294Z,12.00
2022-10-30T10:39:26.269Z,14.60
2022-10-30T10:40:26.285Z,11.90
2022-10-30T10:41:26.251Z,11.80
2022-10-30T10:42:26.242Z,11.50
2022-10-30T10:43:26.237Z,12.30
2022-10-30T10:44:26.229Z,13.50
2022-10-30T10:45:26.246Z,12.20
2022-10-30T10:46:26.213Z,12.60
2022-10-30T10:47:26.212Z,12.10
2022-10-30T10:48:26.197Z,14.80
2022-10-30T10:49:26.205Z,12.90
2022-10-30T10:50:26.212Z,17.00
2022-10-30T10:51:26.178Z,12.50
2022-10-30T10:52:26.169Z,11.50
2022-10-30T10:53:26.161Z,14.80
2022-10-30T10:54:26.157Z,12.90
2022-10-30T10:55:26.169Z,9.10
2022-10-30T10:56:26.133Z,12.70
2022-10-30T10:57:26.132Z,11.60
2022-10-30T10:58:26.119Z,12.60
2022-10-30T10:59:26.112Z,9.40
2022-10-30T11:00:26.133Z,14.40
2022-10-30T11:01:26.224Z,9.90
2022-10-30T11:02:26.184Z,12.00
2022-10-30T11:03:26.085Z,11.50
2022-10-30T11:04:26.083Z,11.50
2022-10-30T11:05:26.096Z,11.70
2022-10-30T11:06:26.063Z,14.50
2022-10-30T11:07:26.052Z,13.40
2022-10-30T11:08:26.044Z,11.60
2022-10-30T11:09:26.039Z,14.50
2022-10-30T11:10:26.057Z,10.10
2022-10-30T11:11:26.020Z,16.50
2022-10-30T11:12:27.568Z,11.00
2022-10-30T11:13:26.005Z,15.70
2022-10-30T11:14:25.999Z,12.50
2022-10-30T11:15:26.015Z,14.00
2022-10-30T11:16:25.985Z,11.00
2022-10-30T11:17:25.976Z,11.50
2022-10-30T11:18:25.970Z,12.80
2022-10-30T11:19:25.965Z,16.30
2022-10-30T11:20:25.978Z,12.00
2022-10-30T11:21:25.946Z,15.70
2022-10-30T11:22:25.940Z,13.50
2022-10-30T11:23:25.930Z,16.40
2022-10-30T11:24:25.922Z,13.90
2022-10-30T11:25:30.340Z,12.10
2022-10-30T11:26:26.905Z,11.30
2022-10-30T11:27:25.902Z,9.60
2022-10-30T11:28:25.894Z,14.20
2022-10-30T11:29:25.886Z,12.80
2022-10-30T11:30:25.912Z,11.60
2022-10-30T11:31:25.862Z,12.30
2022-10-30T11:32:26.864Z,13.70
2022-10-30T11:33:25.854Z,10.00
2022-10-30T11:34:25.881Z,11.70
2022-10-30T11:35:25.836Z,11.40
2022-10-30T11:36:25.854Z,9.80
2022-10-30T11:37:25.819Z,12.30
2022-10-30T11:38:25.812Z,12.10
2022-10-30T11:39:25.804Z,15.40
2022-10-30T11:40:25.801Z,12.70
2022-10-30T11:41:25.823Z,12.10
2022-10-30T11:42:25.792Z,12.40
2022-10-30T11:43:25.783Z,13.10
2022-10-30T11:44:25.771Z,12.70
2022-10-30T11:45:25.765Z,13.60
2022-10-30T11:46:25.784Z,14.60
2022-10-30T11:47:25.806Z,13.60
2022-10-30T11:48:26.050Z,12.20
2022-10-30T11:49:25.735Z,11.70
2022-10-30T11:50:25.729Z,12.40
2022-10-30T11:51:25.791Z,16.30
2022-10-30T11:52:25.707Z,15.70
2022-10-30T11:53:25.703Z,14.10
2022-10-30T11:54:25.693Z,14.70
2022-10-30T11:55:25.684Z,11.40
2022-10-30T11:56:25.703Z,13.80
2022-10-30T11:57:25.672Z,16.20
2022-10-30T11:58:25.665Z,13.90
2022-10-30T11:59:25.658Z,10.60
2022-10-30T12:00:25.647Z,14.10
2022-10-30T12:01:25.683Z,11.90
2022-10-30T12:02:25.738Z,12.30
2022-10-30T12:03:25.622Z,13.80
2022-10-30T12:04:25.625Z,15.00
2022-10-30T12:05:25.613Z,12.10
2022-10-30T12:06:25.623Z,13.00
2022-10-30T12:07:25.592Z,10.90
2022-10-30T12:08:25.591Z,13.90
2022-10-30T12:09:25.580Z,15.10
2022-10-30T12:10:25.578Z,12.00
2022-10-30T12:11:25.591Z,10.60
2022-10-30T12:12:25.557Z,12.80
2022-10-30T12:13:25.559Z,15.00
2022-10-30T12:14:25.542Z,10.60
2022-10-30T12:15:25.534Z,12.20
2022-10-30T12:16:25.552Z,9.80
2022-10-30T12:17:25.523Z,13.30
2022-10-30T12:18:25.584Z,15.00
2022-10-30T12:19:25.523Z,12.90
2022-10-30T12:20:25.503Z,11.50
2022-10-30T12:21:25.526Z,12.00
2022-10-30T12:22:25.476Z,10.40
2022-10-30T12:23:25.462Z,12.70
2022-10-30T12:24:26.466Z,13.70
2022-10-30T12:25:25.458Z,13.40
2022-10-30T12:26:25.476Z,14.60
2022-10-30T12:27:25.440Z,17.90
2022-10-30T12:28:25.434Z,13.80
2022-10-30T12:29:36.520Z,15.10
2022-10-30T12:30:27.415Z,9.80
2022-10-30T12:31:25.433Z,10.40
2022-10-30T12:32:25.401Z,14.70
2022-10-30T12:33:25.392Z,8.70
2022-10-30T12:34:25.387Z,11.60
2022-10-30T12:35:25.378Z,13.60
2022-10-30T12:36:25.397Z,10.70
2022-10-30T12:37:25.367Z,14.60
2022-10-30T12:38:25.359Z,11.80
2022-10-30T12:39:25.351Z,15.80
2022-10-30T12:40:25.341Z,9.40
2022-10-30T12:41:25.352Z,10.90
2022-10-30T12:42:25.322Z,12.30
2022-10-30T12:43:25.321Z,11.50
2022-10-30T12:44:25.310Z,12.60
2022-10-30T12:45:25.304Z,12.80
2022-10-30T12:46:25.319Z,11.30
2022-10-30T12:47:25.296Z,9.30
2022-10-30T12:48:25.281Z,15.90
2022-10-30T12:49:25.272Z,11.40
2022-10-30T12:50:25.264Z,10.70
2022-10-30T12:51:25.286Z,10.70
2022-10-30T12:52:25.253Z,13.60
2022-10-30T12:53:25.244Z,13.40
2022-10-30T12:54:25.238Z,12.30
2022-10-30T12:55:25.228Z,10.80
2022-10-30T12:56:25.248Z,12.90